createdAt,value
2019-01-14T00:00:40.554Z,3.90
2019-01-14T00:05:45.891Z,3.80
2019-01-14T00:10:51.219Z,3.80
2019-01-14T00:15:56.663Z,3.80
2019-01-14T00:21:02.050Z,3.80
2019-01-14T00:26:07.454Z,3.70
2019-01-14T00:31:12.775Z,3.70
2019-01-14T00:36:18.098Z,3.60
2019-01-14T00:41:23.478Z,3.60
2019-01-14T00:46:28.728Z,3.70
2019-01-14T00:51:34.085Z,3.70
2019-01-14T00:56:39.455Z,3.70
2019-01-14T01:01:44.877Z,3.80
2019-01-14T01:06:50.199Z,3.80
2019-01-14T01:11:55.539Z,3.80
2019-01-14T01:17:00.848Z,3.70
2019-01-14T01:22:06.385Z,3.70
2019-01-14T01:27:11.779Z,3.70
2019-01-14T01:32:17.112Z,3.60
2019-01-14T01:37:22.443Z,3.60
2019-01-14T01:42:27.804Z,3.60
2019-01-14T01:47:33.249Z,3.70
2019-01-14T01:52:38.579Z,3.70
2019-01-14T01:57:43.917Z,3.70
2019-01-14T02:02:49.518Z,3.70
2019-01-14T02:07:54.847Z,3.70
2019-01-14T02:13:00.168Z,3.70
2019-01-14T02:18:05.658Z,3.80
2019-01-14T02:23:11.086Z,3.80
2019-01-14T02:28:16.476Z,3.80
2019-01-14T02:33:21.892Z,3.80
2019-01-14T02:38:27.245Z,3.80
2019-01-14T02:43:32.645Z,3.80
2019-01-14T02:48:38.056Z,3.80
2019-01-14T02:53:43.433Z,3.80
2019-01-14T02:58:48.769Z,3.70
2019-01-14T03:03:54.308Z,3.70
2019-01-14T03:08:59.655Z,3.80
2019-01-14T03:14:05.206Z,3.70
2019-01-14T03:19:10.522Z,3.80
2019-01-14T03:24:15.871Z,3.80
2019-01-14T03:29:21.184Z,3.70
2019-01-14T03:34:26.509Z,3.70
2019-01-14T03:39:32.143Z,3.70
2019-01-14T03:44:37.997Z,3.70
2019-01-14T03:49:43.332Z,3.70
2019-01-14T03:54:48.650Z,3.80
2019-01-14T03:59:54.008Z,3.80
2019-01-14T04:04:59.864Z,3.70
2019-01-14T04:10:07.356Z,3.70
2019-01-14T04:15:14.555Z,3.70
2019-01-14T04:20:20.139Z,3.70
2019-01-14T04:25:25.457Z,3.60
2019-01-14T04:30:30.772Z,3.50
2019-01-14T04:35:36.120Z,3.50
2019-01-14T04:40:41.471Z,3.50
2019-01-14T04:45:46.799Z,3.50
2019-01-14T04:50:52.129Z,3.50
2019-01-14T04:55:57.468Z,3.60
2019-01-14T05:01:02.786Z,3.60
2019-01-14T05:06:08.197Z,3.60
2019-01-14T05:11:13.511Z,3.60
2019-01-14T05:16:18.848Z,3.60
2019-01-14T05:21:24.438Z,3.60
2019-01-14T05:26:30.172Z,3.60
2019-01-14T05:31:35.958Z,3.60
2019-01-14T05:36:41.524Z,3.60
2019-01-14T05:41:47.088Z,3.70
2019-01-14T05:46:52.397Z,3.70
2019-01-14T05:51:57.702Z,3.60
2019-01-14T05:57:04.475Z,3.60
2019-01-14T06:02:10.248Z,3.60
2019-01-14T06:07:15.668Z,3.60
2019-01-14T06:12:21.296Z,3.60
2019-01-14T06:17:26.634Z,3.50
2019-01-14T06:22:32.007Z,3.50
2019-01-14T06:27:37.346Z,3.50
2019-01-14T06:32:42.668Z,3.50
2019-01-14T06:37:52.298Z,3.50
2019-01-14T06:42:55.014Z,3.50
2019-01-14T06:48:00.342Z,3.30
2019-01-14T06:53:05.663Z,3.30
2019-01-14T06:58:10.968Z,3.20
2019-01-14T07:03:16.287Z,3.10
2019-01-14T07:08:21.615Z,3.10
2019-01-14T07:13:26.915Z,3.10
2019-01-14T07:18:32.220Z,3.10
2019-01-14T07:23:37.619Z,3.10
2019-01-14T07:28:43.007Z,3.20
2019-01-14T07:33:48.449Z,3.20
2019-01-14T07:38:53.840Z,3.10
2019-01-14T07:43:59.244Z,3.20
2019-01-14T07:49:04.654Z,3.10
2019-01-14T07:54:09.967Z,3.10
2019-01-14T07:59:15.295Z,3.00
2019-01-14T08:04:20.603Z,3.00
2019-01-14T08:09:25.925Z,2.80
2019-01-14T08:14:31.288Z,2.80
2019-01-14T08:19:36.620Z,2.90
2019-01-14T08:24:41.976Z,2.80
2019-01-14T08:29:47.307Z,2.90
2019-01-14T08:34:52.640Z,2.80
2019-01-14T08:39:57.966Z,2.80
2019-01-14T08:45:03.775Z,2.80
2019-01-14T08:50:15.440Z,2.80
2019-01-14T08:55:20.741Z,2.90
2019-01-14T09:00:26.049Z,2.90
2019-01-14T09:05:31.410Z,3.00
2019-01-14T09:10:36.723Z,3.10
2019-01-14T09:15:42.047Z,3.20
2019-01-14T09:20:47.375Z,3.20
2019-01-14T09:25:53.841Z,3.30
2019-01-14T09:30:59.437Z,3.40
2019-01-14T09:36:05.239Z,3.50
2019-01-14T09:41:10.564Z,3.60
2019-01-14T09:46:15.949Z,3.60
2019-01-14T09:51:21.343Z,3.60
2019-01-14T09:56:28.040Z,3.70
2019-01-14T10:01:33.403Z,3.70
2019-01-14T10:06:38.996Z,3.80
2019-01-14T10:11:44.355Z,3.80
2019-01-14T10:16:50.070Z,3.90
2019-01-14T10:21:55.575Z,4.10
2019-01-14T10:27:01.002Z,4.60
2019-01-14T10:32:06.524Z,5.10
2019-01-14T10:37:11.951Z,5.30
2019-01-14T10:42:17.403Z,5.30
2019-01-14T10:47:23.010Z,5.10
2019-01-14T10:52:28.499Z,5.10
2019-01-14T10:57:33.901Z,5.00
2019-01-14T11:02:40.864Z,4.90
2019-01-14T11:07:46.194Z,5.10
2019-01-14T11:12:52.690Z,4.90
2019-01-14T11:17:58.081Z,4.70
2019-01-14T11:23:03.603Z,4.60
2019-01-14T11:28:08.927Z,4.40
2019-01-14T11:33:14.325Z,4.20
2019-01-14T11:38:44.287Z,3.20
2019-01-14T11:43:49.614Z,2.10
2019-01-14T11:48:55.079Z,2.40
2019-01-14T11:54:00.376Z,1.50
2019-01-14T11:59:05.934Z,1.50
2019-01-14T12:04:11.759Z,1.50
2019-01-14T12:09:17.077Z,1.50
2019-01-14T12:14:22.554Z,1.50
2019-01-14T12:19:27.936Z,1.60
2019-01-14T12:24:33.240Z,1.60
2019-01-14T12:29:39.358Z,1.80
2019-01-14T12:34:45.684Z,1.90
2019-01-14T12:39:51.303Z,1.90
2019-01-14T12:44:56.648Z,1.90
2019-01-14T12:50:02.039Z,2.00
2019-01-14T12:55:08.936Z,2.10
2019-01-14T13:00:22.821Z,2.10
2019-01-14T13:05:29.413Z,-1.40
2019-01-14T13:10:35.187Z,2.10
2019-01-14T13:15:44.973Z,2.10
2019-01-14T13:20:50.708Z,2.20
2019-01-14T13:25:56.130Z,2.30
2019-01-14T13:31:01.953Z,2.40
2019-01-14T13:36:10.259Z,2.40
2019-01-14T13:41:16.921Z,2.40
2019-01-14T13:46:26.364Z,2.40
2019-01-14T13:51:29.865Z,2.50
2019-01-14T13:56:35.371Z,2.50
2019-01-14T14:01:40.752Z,2.40
2019-01-14T14:06:46.168Z,2.40
2019-01-14T14:11:51.940Z,2.20
2019-01-14T14:16:57.603Z,2.30
2019-01-14T14:22:03.501Z,2.30
2019-01-14T14:27:08.944Z,2.30
2019-01-14T14:32:15.255Z,2.40
2019-01-14T14:37:20.995Z,2.20
2019-01-14T14:42:27.684Z,2.00
2019-01-14T14:47:33.052Z,1.90
2019-01-14T14:52:38.406Z,1.90
2019-01-14T14:57:43.814Z,1.90
2019-01-14T15:02:49.152Z,1.90
2019-01-14T15:07:55.687Z,1.90
2019-01-14T15:13:01.253Z,1.80
2019-01-14T15:18:06.759Z,1.80
2019-01-14T15:23:12.154Z,1.80
2019-01-14T15:28:17.571Z,1.80
2019-01-14T15:33:23.817Z,1.70
2019-01-14T15:38:30.667Z,1.60
2019-01-14T15:43:36.107Z,1.50
2019-01-14T15:48:43.114Z,1.40
2019-01-14T15:53:48.495Z,1.30
2019-01-14T15:58:53.842Z,1.30
2019-01-14T16:03:59.818Z,1.30
2019-01-14T16:09:08.699Z,4.70
2019-01-14T16:14:15.493Z,1.40
2019-01-14T16:19:20.996Z,1.30
2019-01-14T16:24:26.310Z,1.40
2019-01-14T16:29:32.360Z,1.30
2019-01-14T16:34:37.824Z,1.20
2019-01-14T16:39:43.288Z,1.10
2019-01-14T16:44:48.606Z,1.10
2019-01-14T16:49:53.973Z,1.20
2019-01-14T16:54:59.290Z,1.20
2019-01-14T17:00:05.852Z,1.30
2019-01-14T17:05:13.555Z,1.30
2019-01-14T17:10:25.162Z,1.50
2019-01-14T17:15:27.234Z,1.70
2019-01-14T17:20:32.575Z,1.80
2019-01-14T17:25:38.081Z,2.00
2019-01-14T17:30:43.399Z,2.10
2019-01-14T17:35:48.705Z,2.20
2019-01-14T17:40:54.116Z,2.10
2019-01-14T17:45:59.479Z,2.10
2019-01-14T17:51:04.975Z,2.10
2019-01-14T17:56:10.528Z,2.00
2019-01-14T18:01:16.703Z,2.10
2019-01-14T18:06:22.118Z,2.20
2019-01-14T18:11:27.550Z,2.10
2019-01-14T18:16:32.991Z,2.00
2019-01-14T18:21:38.442Z,1.70
2019-01-14T18:26:43.808Z,1.60
2019-01-14T18:31:49.323Z,1.80
2019-01-14T18:36:55.027Z,1.90
2019-01-14T18:42:01.134Z,1.90
2019-01-14T18:47:06.974Z,2.10
2019-01-14T18:52:12.451Z,2.10
2019-01-14T18:57:18.596Z,2.20
2019-01-14T19:02:24.682Z,2.10
2019-01-14T19:07:31.682Z,2.20
2019-01-14T19:12:37.478Z,2.10
2019-01-14T19:17:43.393Z,2.10
2019-01-14T19:22:49.433Z,2.00
2019-01-14T19:27:54.936Z,1.90
2019-01-14T19:33:00.335Z,1.90
2019-01-14T19:38:05.655Z,1.80
2019-01-14T19:43:11.092Z,1.70
2019-01-14T19:48:16.758Z,1.70
2019-01-14T19:53:22.359Z,1.80
2019-01-14T19:58:27.680Z,1.80
2019-01-14T20:03:33.294Z,1.70
2019-01-14T20:08:39.351Z,1.50
2019-01-14T20:13:44.928Z,1.40
2019-01-14T20:18:50.304Z,1.20
2019-01-14T20:23:55.876Z,1.20
2019-01-14T20:29:01.444Z,1.10
2019-01-14T20:34:07.988Z,1.10
2019-01-14T20:39:14.862Z,1.00
2019-01-14T20:44:20.338Z,1.10
2019-01-14T20:49:25.618Z,1.00
2019-01-14T20:54:30.873Z,1.00
2019-01-14T20:59:38.684Z,1.00
2019-01-14T21:04:43.212Z,1.10
2019-01-14T21:09:51.728Z,1.10
2019-01-14T21:14:57.428Z,1.20
2019-01-14T21:20:04.611Z,1.30
2019-01-14T21:25:11.642Z,1.20
2019-01-14T21:30:19.439Z,1.10
2019-01-14T21:35:24.988Z,1.10
2019-01-14T21:40:30.579Z,1.00
2019-01-14T21:45:37.050Z,1.00
2019-01-14T21:50:42.755Z,1.00
2019-01-14T21:55:48.193Z,1.00
2019-01-14T22:00:54.247Z,1.00
2019-01-14T22:06:00.616Z,1.00
2019-01-14T22:11:09.023Z,1.00
2019-01-14T22:16:15.637Z,1.00
2019-01-14T22:21:21.102Z,1.00
2019-01-14T22:26:29.041Z,1.00
2019-01-14T22:31:34.557Z,1.00
2019-01-14T22:36:41.011Z,1.10
2019-01-14T22:41:46.423Z,1.10
2019-01-14T22:46:51.998Z,1.20
2019-01-14T22:51:57.370Z,1.10
2019-01-14T22:57:02.779Z,1.10
2019-01-14T23:02:08.276Z,1.10
2019-01-14T23:07:13.675Z,-0.40
2019-01-14T23:12:19.114Z,-0.90
2019-01-14T23:17:25.246Z,0.90
2019-01-14T23:22:30.556Z,1.00
2019-01-14T23:27:36.074Z,1.00
2019-01-14T23:32:41.446Z,1.00
2019-01-14T23:37:46.780Z,1.10
2019-01-14T23:42:52.179Z,1.10
2019-01-14T23:47:58.759Z,1.10
2019-01-14T23:53:04.520Z,1.10
2019-01-14T23:58:09.943Z,1.20
